createdAt,value
2022-12-19T00:01:32.153Z,95.64
2022-12-19T00:04:01.228Z,96.07
2022-12-19T00:06:28.976Z,95.51
2022-12-19T00:08:56.847Z,96.00
2022-12-19T00:11:25.130Z,95.69
2022-12-19T00:13:51.536Z,96.35
2022-12-19T00:16:20.873Z,95.96
2022-12-19T00:18:48.798Z,96.14
2022-12-19T00:21:19.116Z,95.90
2022-12-19T00:23:46.582Z,96.32
2022-12-19T00:26:17.528Z,96.60
2022-12-19T00:28:46.404Z,96.00
2022-12-19T00:31:13.759Z,96.26
2022-12-19T00:33:43.351Z,96.49
2022-12-19T00:36:16.501Z,96.56
2022-12-19T00:38:50.996Z,97.08
2022-12-19T00:41:28.379Z,97.29
2022-12-19T00:43:56.998Z,97.27
2022-12-19T00:46:23.513Z,97.69
2022-12-19T00:48:50.222Z,97.71
2022-12-19T00:51:19.177Z,98.23
2022-12-19T00:53:48.363Z,97.81
2022-12-19T00:56:20.648Z,97.90
2022-12-19T00:58:47.706Z,98.69
2022-12-19T01:01:20.524Z,98.98
2022-12-19T01:04:18.779Z,98.56
2022-12-19T01:06:34.123Z,98.38
2022-12-19T01:09:00.920Z,98.68
2022-12-19T01:11:45.884Z,98.48
2022-12-19T01:14:19.072Z,98.44
2022-12-19T01:16:49.433Z,98.77
2022-12-19T01:19:15.849Z,99.09
2022-12-19T01:21:42.355Z,99.38
2022-12-19T01:24:09.461Z,99.56
2022-12-19T01:26:35.982Z,99.27
2022-12-19T01:29:02.360Z,99.71
2022-12-19T01:31:28.830Z,99.79
2022-12-19T01:33:55.324Z,100.00
2022-12-19T01:36:21.719Z,100.00
2022-12-19T01:38:48.040Z,100.00
2022-12-19T01:41:14.509Z,100.00
2022-12-19T01:44:02.094Z,100.00
2022-12-19T01:46:38.313Z,100.00
2022-12-19T01:49:09.811Z,100.00
2022-12-19T01:51:42.621Z,100.00
2022-12-19T01:54:14.435Z,100.00
2022-12-19T01:56:45.636Z,100.00
2022-12-19T01:59:26.959Z,100.00
2022-12-19T02:02:00.296Z,100.00
2022-12-19T02:04:32.395Z,100.00
2022-12-19T02:07:07.497Z,100.00
2022-12-19T02:09:44.998Z,100.00
2022-12-19T02:12:11.396Z,100.00
2022-12-19T02:14:38.445Z,100.00
2022-12-19T02:17:20.627Z,100.00
2022-12-19T02:20:18.418Z,100.00
2022-12-19T02:23:12.866Z,100.00
2022-12-19T02:25:45.958Z,100.00
2022-12-19T02:28:21.355Z,100.00
2022-12-19T02:31:01.393Z,100.00
2022-12-19T02:33:47.371Z,100.00
2022-12-19T02:36:21.810Z,100.00
2022-12-19T02:38:56.318Z,100.00
2022-12-19T02:41:43.200Z,100.00
2022-12-19T02:44:15.635Z,100.00
2022-12-19T02:46:44.536Z,100.00
2022-12-19T02:49:12.112Z,100.00
2022-12-19T02:51:42.999Z,100.00
2022-12-19T02:54:10.726Z,100.00
2022-12-19T02:56:52.882Z,100.00
2022-12-19T02:59:55.713Z,100.00
2022-12-19T03:02:47.502Z,99.56
2022-12-19T03:05:35.031Z,99.63
2022-12-19T03:08:22.633Z,99.28
2022-12-19T03:10:58.595Z,99.28
2022-12-19T03:13:32.825Z,99.54
2022-12-19T03:16:01.416Z,99.58
2022-12-19T03:18:28.339Z,99.32
2022-12-19T03:21:04.755Z,98.88
2022-12-19T03:23:31.569Z,99.06
2022-12-19T03:26:03.234Z,99.46
2022-12-19T03:28:44.402Z,99.58
2022-12-19T03:31:13.938Z,99.61
2022-12-19T03:33:42.003Z,99.89
2022-12-19T03:36:13.983Z,100.00
2022-12-19T03:38:43.623Z,100.00
2022-12-19T03:41:12.811Z,100.00
2022-12-19T03:43:41.437Z,100.00
2022-12-19T03:46:17.854Z,100.00
2022-12-19T03:48:48.263Z,100.00
2022-12-19T03:51:45.726Z,100.00
2022-12-19T03:54:25.342Z,100.00
2022-12-19T03:57:07.001Z,100.00
2022-12-19T03:59:36.343Z,100.00
2022-12-19T04:02:04.307Z,100.00
2022-12-19T04:04:34.705Z,100.00
2022-12-19T04:07:03.979Z,100.00
2022-12-19T04:09:31.965Z,100.00
2022-12-19T04:12:04.931Z,100.00
2022-12-19T04:14:34.732Z,100.00
2022-12-19T04:17:12.460Z,100.00
2022-12-19T04:19:51.091Z,100.00
2022-12-19T04:22:52.702Z,100.00
2022-12-19T04:25:29.663Z,100.00
2022-12-19T04:28:01.546Z,100.00
2022-12-19T04:30:28.093Z,100.00
2022-12-19T04:32:56.062Z,100.00
2022-12-19T04:35:22.606Z,100.00
2022-12-19T04:37:49.027Z,100.00
2022-12-19T04:40:15.637Z,100.00
2022-12-19T04:42:42.085Z,100.00
2022-12-19T04:45:09.459Z,100.00
2022-12-19T04:47:36.097Z,100.00
2022-12-19T04:50:02.501Z,100.00
2022-12-19T04:52:28.875Z,100.00
2022-12-19T04:54:55.253Z,100.00
2022-12-19T04:57:21.946Z,100.00
2022-12-19T04:59:48.490Z,100.00
2022-12-19T05:02:14.909Z,100.00
2022-12-19T05:04:41.344Z,100.00
2022-12-19T05:07:07.835Z,100.00
2022-12-19T05:09:34.218Z,100.00
2022-12-19T05:12:00.637Z,100.00
2022-12-19T05:14:27.823Z,100.00
2022-12-19T05:17:00.424Z,100.00
2022-12-19T05:19:28.448Z,100.00
2022-12-19T05:21:54.865Z,100.00
2022-12-19T05:24:21.262Z,100.00
2022-12-19T05:26:49.289Z,100.00
2022-12-19T05:29:17.180Z,100.00
2022-12-19T05:31:43.633Z,100.00
2022-12-19T05:34:10.201Z,100.00
2022-12-19T05:36:36.547Z,100.00
2022-12-19T05:39:02.953Z,100.00
2022-12-19T05:41:29.494Z,100.00
2022-12-19T05:43:56.333Z,100.00
2022-12-19T05:46:24.173Z,100.00
2022-12-19T05:48:50.867Z,100.00
2022-12-19T05:51:17.767Z,100.00
2022-12-19T05:53:44.745Z,100.00
2022-12-19T05:56:17.166Z,100.00
2022-12-19T05:58:44.966Z,100.00
2022-12-19T06:01:23.243Z,100.00
2022-12-19T06:03:50.555Z,100.00
2022-12-19T06:06:20.447Z,100.00
2022-12-19T06:08:47.248Z,100.00
2022-12-19T06:11:14.837Z,100.00
2022-12-19T06:13:41.750Z,100.00
2022-12-19T06:16:14.228Z,100.00
2022-12-19T06:18:44.726Z,100.00
2022-12-19T06:21:20.861Z,100.00
2022-12-19T06:23:47.709Z,100.00
2022-12-19T06:26:19.522Z,100.00
2022-12-19T06:28:47.874Z,100.00
2022-12-19T06:31:15.126Z,100.00
2022-12-19T06:33:42.140Z,100.00
2022-12-19T06:36:15.960Z,100.00
2022-12-19T06:38:42.473Z,100.00
2022-12-19T06:41:29.062Z,100.00
2022-12-19T06:44:03.262Z,100.00
2022-12-19T06:46:29.953Z,100.00
2022-12-19T06:48:56.688Z,100.00
2022-12-19T06:51:23.717Z,100.00
2022-12-19T06:53:50.878Z,100.00
2022-12-19T06:56:18.163Z,100.00
2022-12-19T06:58:44.671Z,100.00
2022-12-19T07:01:31.817Z,100.00
2022-12-19T07:03:58.906Z,100.00
2022-12-19T07:06:25.348Z,100.00
2022-12-19T07:08:53.215Z,100.00
2022-12-19T07:11:19.714Z,100.00
2022-12-19T07:13:46.054Z,100.00
2022-12-19T07:16:12.532Z,100.00
2022-12-19T07:18:40.749Z,100.00
2022-12-19T07:21:11.205Z,100.00
2022-12-19T07:23:38.352Z,100.00
2022-12-19T07:26:04.897Z,100.00
2022-12-19T07:28:33.677Z,100.00
2022-12-19T07:31:00.133Z,100.00
2022-12-19T07:33:26.569Z,100.00
2022-12-19T07:35:52.999Z,100.00
2022-12-19T07:38:19.545Z,100.00
2022-12-19T07:40:45.891Z,100.00
2022-12-19T07:43:12.222Z,100.00
2022-12-19T07:45:39.208Z,100.00
2022-12-19T07:48:06.975Z,100.00
2022-12-19T07:50:33.495Z,100.00
2022-12-19T07:53:00.622Z,100.00
2022-12-19T07:55:27.334Z,100.00
2022-12-19T07:57:55.305Z,100.00
2022-12-19T08:00:22.573Z,100.00
2022-12-19T08:02:49.329Z,100.00
2022-12-19T08:05:15.890Z,100.00
2022-12-19T08:07:42.261Z,100.00
2022-12-19T08:10:11.217Z,100.00
2022-12-19T08:12:37.970Z,100.00
2022-12-19T08:15:05.769Z,100.00
2022-12-19T08:17:32.241Z,100.00
2022-12-19T08:19:58.651Z,100.00
2022-12-19T08:22:25.039Z,100.00
2022-12-19T08:24:51.351Z,100.00
2022-12-19T08:27:17.785Z,100.00
2022-12-19T08:29:44.323Z,100.00
2022-12-19T08:32:14.361Z,100.00
2022-12-19T08:34:43.545Z,100.00
2022-12-19T08:37:10.991Z,100.00
2022-12-19T08:39:37.458Z,100.00
2022-12-19T08:42:03.868Z,100.00
2022-12-19T08:44:30.236Z,100.00
2022-12-19T08:46:56.665Z,100.00
2022-12-19T08:49:23.075Z,100.00
2022-12-19T08:51:49.859Z,100.00
2022-12-19T08:54:16.344Z,100.00
2022-12-19T08:56:46.283Z,100.00
2022-12-19T08:59:16.079Z,100.00
2022-12-19T09:01:57.433Z,100.00
2022-12-19T09:06:02.070Z,100.00
2022-12-19T09:07:10.501Z,100.00
2022-12-19T09:09:36.819Z,100.00
2022-12-19T09:12:03.469Z,100.00
2022-12-19T09:14:35.664Z,100.00
2022-12-19T09:17:03.848Z,100.00
2022-12-19T09:19:31.909Z,100.00
2022-12-19T09:21:59.248Z,100.00
2022-12-19T09:24:26.048Z,100.00
2022-12-19T09:26:52.437Z,100.00
2022-12-19T09:29:20.524Z,100.00
2022-12-19T09:31:47.773Z,100.00
2022-12-19T09:34:17.014Z,100.00
2022-12-19T09:36:43.343Z,100.00
2022-12-19T09:39:11.261Z,100.00
2022-12-19T09:41:58.789Z,100.00
2022-12-19T09:44:25.127Z,100.00
2022-12-19T09:46:56.158Z,100.00
2022-12-19T09:49:25.891Z,100.00
2022-12-19T09:52:19.490Z,100.00
2022-12-19T09:55:11.807Z,100.00
2022-12-19T09:58:13.128Z,100.00
2022-12-19T10:00:44.554Z,100.00
2022-12-19T10:03:18.126Z,100.00
2022-12-19T10:07:00.745Z,100.00
2022-12-19T10:08:55.387Z,100.00
2022-12-19T10:12:43.380Z,100.00
2022-12-19T10:14:45.251Z,100.00
2022-12-19T10:17:30.136Z,100.00
2022-12-19T10:20:38.501Z,100.00
2022-12-19T10:23:45.676Z,100.00
2022-12-19T10:26:20.874Z,100.00
2022-12-19T10:29:06.902Z,100.00
2022-12-19T10:31:42.736Z,100.00
2022-12-19T10:34:20.665Z,100.00
2022-12-19T10:40:00.712Z,100.00
2022-12-19T10:42:34.305Z,100.00
2022-12-19T10:45:08.852Z,100.00
2022-12-19T10:47:35.432Z,100.00
2022-12-19T10:50:08.984Z,100.00
2022-12-19T10:52:49.050Z,100.00
2022-12-19T10:55:40.259Z,100.00
2022-12-19T10:58:20.297Z,100.00
2022-12-19T11:01:14.180Z,100.00
2022-12-19T11:03:43.821Z,100.00
2022-12-19T11:06:34.924Z,100.00
2022-12-19T11:09:29.547Z,100.00
2022-12-19T11:16:14.608Z,100.00
2022-12-19T11:18:54.653Z,100.00
2022-12-19T11:26:07.891Z,100.00
2022-12-19T11:29:30.271Z,100.00
2022-12-19T11:30:34.389Z,100.00
2022-12-19T11:30:45.893Z,100.00
2022-12-19T11:32:44.579Z,100.00
2022-12-19T11:35:24.880Z,100.00
2022-12-19T11:37:57.042Z,100.00
2022-12-19T11:40:32.861Z,100.00
2022-12-19T11:43:42.653Z,100.00
2022-12-19T11:46:46.885Z,100.00
2022-12-19T11:49:38.575Z,100.00
2022-12-19T11:55:26.971Z,100.00
2022-12-19T11:57:54.331Z,100.00
2022-12-19T12:00:24.414Z,100.00
2022-12-19T12:03:28.532Z,100.00
2022-12-19T12:05:56.583Z,100.00
2022-12-19T12:08:30.513Z,100.00
2022-12-19T12:16:56.085Z,100.00
2022-12-19T12:25:26.182Z,100.00
2022-12-19T12:30:26.028Z,100.00
2022-12-19T12:31:09.041Z,100.00
2022-12-19T12:31:42.782Z,100.00
2022-12-19T12:32:00.368Z,100.00
2022-12-19T12:32:02.261Z,100.00
2022-12-19T12:35:34.423Z,100.00
2022-12-19T12:39:03.099Z,100.00
2022-12-19T12:42:05.426Z,100.00
2022-12-19T12:44:44.846Z,100.00
2022-12-19T12:47:19.125Z,100.00
2022-12-19T12:49:51.922Z,100.00
2022-12-19T12:52:21.747Z,100.00
2022-12-19T12:54:50.147Z,100.00
2022-12-19T12:57:30.103Z,100.00
2022-12-19T13:00:19.571Z,100.00
2022-12-19T13:02:52.294Z,100.00
2022-12-19T13:05:29.585Z,100.00
2022-12-19T13:07:56.078Z,100.00
2022-12-19T13:10:25.424Z,100.00
2022-12-19T13:13:14.477Z,100.00
2022-12-19T13:15:46.009Z,100.00
2022-12-19T13:18:32.392Z,100.00
2022-12-19T13:21:00.794Z,100.00
2022-12-19T13:23:30.171Z,100.00
2022-12-19T13:25:56.696Z,100.00
2022-12-19T13:28:23.075Z,100.00
2022-12-19T13:31:18.315Z,100.00
2022-12-19T13:33:54.793Z,100.00
2022-12-19T13:39:52.444Z,100.00
2022-12-19T13:40:00.874Z,100.00
2022-12-19T13:42:46.966Z,100.00
2022-12-19T13:45:22.956Z,100.00
2022-12-19T13:47:51.121Z,100.00
2022-12-19T13:50:29.584Z,100.00
2022-12-19T13:52:56.008Z,100.00
2022-12-19T13:55:22.938Z,100.00
2022-12-19T13:57:53.323Z,100.00
2022-12-19T14:00:22.724Z,100.00
2022-12-19T14:03:00.364Z,100.00
2022-12-19T14:06:17.116Z,100.00
2022-12-19T14:08:24.511Z,100.00
2022-12-19T14:11:42.187Z,100.00
2022-12-19T14:14:12.695Z,100.00
2022-12-19T14:16:45.602Z,100.00
2022-12-19T14:19:19.551Z,100.00
2022-12-19T14:22:11.379Z,100.00
2022-12-19T14:24:32.417Z,100.00
2022-12-19T14:28:20.710Z,100.00
2022-12-19T14:30:27.989Z,100.00
2022-12-19T14:33:39.312Z,100.00
2022-12-19T14:36:12.266Z,100.00
2022-12-19T14:39:26.481Z,100.00
2022-12-19T14:42:03.562Z,100.00
2022-12-19T14:51:52.095Z,99.41
2022-12-19T14:54:02.261Z,99.84
2022-12-19T14:54:38.006Z,99.48
2022-12-19T14:54:44.184Z,99.67
2022-12-19T14:59:03.075Z,99.41
2022-12-19T15:01:33.081Z,99.17
2022-12-19T15:04:51.894Z,99.07
2022-12-19T15:07:09.248Z,99.61
2022-12-19T15:11:07.283Z,99.25
2022-12-19T15:14:51.499Z,98.82
2022-12-19T15:16:04.884Z,98.91
2022-12-19T15:18:42.336Z,98.53
2022-12-19T15:21:14.556Z,98.43
2022-12-19T15:23:43.489Z,98.24
2022-12-19T15:26:17.516Z,98.33
2022-12-19T15:28:50.806Z,98.00
2022-12-19T15:31:30.024Z,97.61
2022-12-19T15:36:43.125Z,97.13
2022-12-19T15:39:09.482Z,96.92
2022-12-19T15:41:35.953Z,96.74
2022-12-19T15:44:17.699Z,97.22
2022-12-19T15:46:48.683Z,97.04
2022-12-19T15:49:21.020Z,97.43
2022-12-19T15:51:48.401Z,97.29
2022-12-19T15:54:48.023Z,97.33
2022-12-19T15:57:01.529Z,97.50
2022-12-19T15:59:40.903Z,97.47
2022-12-19T16:02:22.539Z,97.68
2022-12-19T16:04:50.843Z,98.07
2022-12-19T16:07:22.045Z,97.89
2022-12-19T16:09:49.603Z,97.77
2022-12-19T16:12:20.272Z,98.03
2022-12-19T16:14:51.961Z,98.02
2022-12-19T16:17:21.667Z,98.17
2022-12-19T16:19:48.649Z,98.06
2022-12-19T16:22:22.427Z,98.38
2022-12-19T16:24:50.268Z,98.18
2022-12-19T16:27:26.735Z,98.35
2022-12-19T16:29:54.440Z,98.38
2022-12-19T16:32:25.844Z,98.36
2022-12-19T16:34:53.050Z,98.60
2022-12-19T16:37:19.580Z,98.91
2022-12-19T16:39:46.105Z,99.16
2022-12-19T16:42:17.226Z,99.17
2022-12-19T16:44:48.112Z,99.38
2022-12-19T16:47:17.128Z,99.17
2022-12-19T16:49:44.906Z,99.20
2022-12-19T16:52:12.113Z,99.30
2022-12-19T16:54:38.611Z,99.49
2022-12-19T16:57:16.178Z,99.24
2022-12-19T16:59:43.021Z,99.52
2022-12-19T17:02:36.356Z,99.32
2022-12-19T17:05:04.242Z,99.62
2022-12-19T17:07:31.709Z,99.60
2022-12-19T17:09:58.291Z,99.68
2022-12-19T17:12:27.489Z,99.39
2022-12-19T17:14:54.143Z,99.48
2022-12-19T17:17:20.679Z,99.52
2022-12-19T17:19:51.669Z,99.01
2022-12-19T17:22:19.047Z,99.13
2022-12-19T17:24:47.162Z,98.98
2022-12-19T17:27:14.039Z,99.32
2022-12-19T17:29:40.547Z,99.08
2022-12-19T17:32:08.881Z,98.74
2022-12-19T17:34:36.086Z,99.00
2022-12-19T17:37:04.930Z,98.66
2022-12-19T17:39:34.269Z,98.59
2022-12-19T17:42:23.185Z,98.65
2022-12-19T17:44:49.707Z,98.74
2022-12-19T17:47:19.585Z,98.51
2022-12-19T17:49:46.948Z,98.52
2022-12-19T17:52:19.378Z,98.36
2022-12-19T17:54:46.021Z,98.54
2022-12-19T17:57:17.083Z,98.46
2022-12-19T17:59:43.801Z,98.36
2022-12-19T18:02:24.380Z,98.76
2022-12-19T18:04:51.508Z,98.58
2022-12-19T18:07:18.210Z,98.63
2022-12-19T18:09:44.868Z,98.35
2022-12-19T18:12:11.535Z,98.25
2022-12-19T18:14:38.043Z,98.33
2022-12-19T18:17:05.189Z,98.22
2022-12-19T18:19:32.827Z,98.04
2022-12-19T18:21:59.423Z,98.19
2022-12-19T18:24:26.407Z,97.94
2022-12-19T18:26:52.765Z,97.92
2022-12-19T18:29:19.131Z,97.86
2022-12-19T18:31:50.794Z,97.53
2022-12-19T18:34:23.930Z,97.58
2022-12-19T18:36:51.249Z,97.86
2022-12-19T18:39:23.906Z,97.89
2022-12-19T18:41:51.157Z,97.83
2022-12-19T18:44:17.627Z,97.99
2022-12-19T18:46:44.178Z,97.87
2022-12-19T18:49:15.337Z,97.74
2022-12-19T18:51:41.846Z,99.48
2022-12-19T18:54:22.059Z,98.72
2022-12-19T18:56:48.602Z,97.87
2022-12-19T18:59:15.055Z,97.75
2022-12-19T19:01:44.587Z,97.63
2022-12-19T19:04:13.182Z,97.52
2022-12-19T19:06:43.600Z,97.32
2022-12-19T19:09:18.005Z,97.35
2022-12-19T19:11:44.895Z,97.45
2022-12-19T19:14:11.501Z,97.56
2022-12-19T19:16:39.753Z,97.63
2022-12-19T19:19:10.305Z,97.76
2022-12-19T19:21:37.320Z,97.34
2022-12-19T19:24:06.050Z,97.34
2022-12-19T19:26:32.547Z,97.14
2022-12-19T19:28:58.947Z,97.20
2022-12-19T19:31:28.409Z,97.21
2022-12-19T19:34:00.941Z,97.24
2022-12-19T19:36:30.988Z,97.08
2022-12-19T19:38:57.972Z,97.05
2022-12-19T19:41:29.547Z,97.28
2022-12-19T19:43:57.448Z,97.18
2022-12-19T19:46:23.800Z,97.42
2022-12-19T19:48:50.238Z,97.06
2022-12-19T19:51:16.898Z,97.22
2022-12-19T19:53:43.607Z,97.01
2022-12-19T19:56:10.916Z,97.04
2022-12-19T19:58:37.400Z,97.47
2022-12-19T20:01:12.024Z,97.38
2022-12-19T20:03:40.342Z,97.64
2022-12-19T20:06:07.460Z,97.90
2022-12-19T20:08:39.827Z,97.47
2022-12-19T20:11:08.990Z,97.92
2022-12-19T20:13:35.504Z,97.78
2022-12-19T20:16:13.457Z,97.82
2022-12-19T20:18:41.204Z,97.75
2022-12-19T20:21:13.472Z,97.56
2022-12-19T20:23:41.841Z,97.24
2022-12-19T20:26:08.994Z,97.58
2022-12-19T20:28:35.553Z,97.51
2022-12-19T20:31:02.262Z,97.03
2022-12-19T20:33:28.927Z,96.97
2022-12-19T20:36:05.331Z,96.67
2022-12-19T20:38:31.853Z,96.87
2022-12-19T20:40:58.219Z,96.55
2022-12-19T20:43:24.741Z,96.57
2022-12-19T20:45:51.485Z,96.45
2022-12-19T20:48:18.513Z,96.49
2022-12-19T20:50:45.030Z,96.17
2022-12-19T20:53:11.477Z,96.35
2022-12-19T20:55:37.987Z,96.12
2022-12-19T20:58:04.479Z,95.86
2022-12-19T21:00:30.859Z,96.31
2022-12-19T21:05:43.906Z,96.45
2022-12-19T21:08:10.321Z,96.08
2022-12-19T21:10:36.809Z,95.91
2022-12-19T21:13:03.287Z,95.71
2022-12-19T21:15:31.042Z,95.72
2022-12-19T21:17:57.436Z,95.58
2022-12-19T21:20:26.181Z,95.63
2022-12-19T21:22:55.955Z,95.23
2022-12-19T21:25:22.361Z,95.44
2022-12-19T21:27:48.723Z,95.33
2022-12-19T21:30:15.126Z,95.33
2022-12-19T21:32:41.522Z,95.26
2022-12-19T21:35:08.202Z,95.42
2022-12-19T21:37:39.797Z,95.24
2022-12-19T21:40:10.123Z,95.28
2022-12-19T21:42:36.696Z,95.27
2022-12-19T21:45:03.152Z,95.27
2022-12-19T21:47:29.478Z,95.06
2022-12-19T21:49:55.809Z,95.01
2022-12-19T21:52:22.194Z,95.19
2022-12-19T21:54:48.622Z,94.91
2022-12-19T21:57:15.001Z,95.41
2022-12-19T21:59:41.418Z,95.30
2022-12-19T22:02:10.319Z,94.95
2022-12-19T22:04:36.783Z,94.97
2022-12-19T22:07:05.563Z,95.06
2022-12-19T22:09:32.187Z,95.05
2022-12-19T22:11:58.601Z,95.05
2022-12-19T22:14:25.480Z,94.94
2022-12-19T22:16:52.104Z,95.02
2022-12-19T22:19:19.695Z,95.15
2022-12-19T22:21:47.165Z,95.54
2022-12-19T22:24:15.388Z,95.28
2022-12-19T22:26:41.895Z,95.30
2022-12-19T22:29:11.061Z,95.35
2022-12-19T22:31:38.787Z,95.30
2022-12-19T22:34:12.013Z,95.24
2022-12-19T22:36:39.834Z,95.06
2022-12-19T22:39:10.816Z,95.01
2022-12-19T22:41:38.432Z,95.08
2022-12-19T22:44:05.645Z,94.86
2022-12-19T22:46:37.025Z,94.70
2022-12-19T22:49:08.734Z,94.56
2022-12-19T22:51:36.499Z,94.61
2022-12-19T22:54:03.599Z,94.47
2022-12-19T22:56:31.548Z,94.56
2022-12-19T22:59:04.792Z,94.45
2022-12-19T23:01:34.638Z,94.38
2022-12-19T23:04:02.568Z,94.38
2022-12-19T23:06:31.300Z,94.20
2022-12-19T23:08:58.193Z,93.90
2022-12-19T23:11:28.022Z,93.83
2022-12-19T23:13:54.450Z,94.01
2022-12-19T23:16:21.021Z,93.60
2022-12-19T23:18:47.405Z,93.46
2022-12-19T23:21:17.804Z,93.56
2022-12-19T23:23:47.206Z,93.43
2022-12-19T23:26:19.252Z,93.31
2022-12-19T23:29:00.607Z,93.21
2022-12-19T23:31:28.198Z,92.98
2022-12-19T23:33:55.141Z,92.82
2022-12-19T23:36:45.335Z,93.22
2022-12-19T23:39:09.896Z,93.16
2022-12-19T23:41:36.371Z,93.13
2022-12-19T23:44:03.198Z,92.91
2022-12-19T23:46:29.653Z,92.87
2022-12-19T23:48:56.472Z,92.98
2022-12-19T23:51:25.743Z,92.84
2022-12-19T23:53:53.476Z,92.58
2022-12-19T23:56:23.543Z,92.68
2022-12-19T23:58:50.579Z,92.45
